Time;durP1;ratioP1;P1;durP2;ratioP2;P2;SDS_P1;SDS_P2;PMS_P1;PMS_P2;Temp;Humidity;BMP_temperature;BMP_pressure;BME280_temperature;BME280_humidity;BME280_pressure;Samples;Min_cycle;Max_cycle;Signal;HPM_P1;HPM_P2
2022/05/29 00:00:11;;;;;;;7.63;2.60;;;;;;;9.99;72.16;100301.97;5105005;28;20454;-61
2022/05/29 00:02:40;;;;;;;9.33;3.10;;;;;;;9.93;72.80;100299.84;5107836;28;20550;-60
2022/05/29 00:05:08;;;;;;;10.43;3.30;;;;;;;9.92;72.54;100300.00;5118785;28;20479;-60
2022/05/29 00:07:35;;;;;;;9.73;3.37;;;;;;;10.04;72.59;100295.41;5121442;28;21196;-60
2022/05/29 00:10:05;;;;;;;5.47;2.67;;;;;;;9.95;73.19;100292.53;5117107;28;20439;-61
2022/05/29 00:12:31;;;;;;;5.83;2.90;;;;;;;9.87;73.50;100289.69;5113820;28;20474;-61
2022/05/29 00:14:58;;;;;;;9.63;3.17;;;;;;;9.93;74.02;100282.97;5111961;28;20495;-60
2022/05/29 00:17:25;;;;;;;13.03;3.23;;;;;;;9.95;73.86;100287.22;5103372;28;20479;-60
2022/05/29 00:19:54;;;;;;;6.73;2.70;;;;;;;10.09;73.56;100287.81;5116210;28;20454;-61
2022/05/29 00:22:22;;;;;;;8.33;2.80;;;;;;;9.79;74.20;100285.06;5104946;28;20483;-60
2022/05/29 00:24:50;;;;;;;8.80;3.20;;;;;;;9.87;74.11;100286.19;5107454;28;20462;-60
2022/05/29 00:27:18;;;;;;;8.47;2.97;;;;;;;9.81;74.04;100279.56;5121373;28;21275;-60
2022/05/29 00:29:48;;;;;;;8.10;2.97;;;;;;;9.86;74.16;100289.84;5119349;28;20458;-61
2022/05/29 00:32:15;;;;;;;8.43;3.33;;;;;;;9.80;73.72;100284.06;5105370;28;20505;-60
2022/05/29 00:34:41;;;;;;;6.50;3.40;;;;;;;9.90;73.43;100277.91;5113400;28;20438;-60
2022/05/29 00:37:13;;;;;;;7.40;3.07;;;;;;;9.83;73.59;100279.44;5113061;28;20462;-60
2022/05/29 00:39:41;;;;;;;9.63;3.20;;;;;;;9.85;73.77;100274.81;5103770;28;21046;-62
2022/05/29 00:42:08;;;;;;;6.00;3.07;;;;;;;9.88;73.55;100279.88;5117985;28;20530;-61
2022/05/29 00:44:36;;;;;;;6.43;2.47;;;;;;;9.86;73.69;100265.81;5087917;28;20469;-62
2022/05/29 00:47:11;;;;;;;9.70;3.10;;;;;;;9.88;73.64;100266.53;5110823;28;20534;-61
2022/05/29 00:49:39;;;;;;;9.13;2.83;;;;;;;9.88;74.13;100255.84;5118698;28;20450;-62
2022/05/29 00:52:10;;;;;;;8.97;3.50;;;;;;;9.93;73.75;100267.81;5119493;28;20554;-62
2022/05/29 00:54:42;;;;;;;7.57;2.90;;;;;;;9.90;73.95;100265.41;5122633;28;20970;-61
2022/05/29 00:57:11;;;;;;;13.63;5.10;;;;;;;9.79;74.21;100257.47;5121912;28;20474;-61
2022/05/29 00:59:37;;;;;;;7.93;2.90;;;;;;;9.80;74.18;100262.69;5122319;28;20457;-62
2022/05/29 01:02:05;;;;;;;8.07;3.03;;;;;;;9.76;74.41;100257.78;5121543;28;20493;-62
2022/05/29 01:04:32;;;;;;;7.40;3.70;;;;;;;9.73;74.00;100253.53;5122655;28;20556;-62
2022/05/29 01:07:02;;;;;;;11.37;3.57;;;;;;;9.63;73.34;100252.66;5120955;28;20480;-62
2022/05/29 01:09:31;;;;;;;12.33;4.07;;;;;;;9.72;73.51;100249.19;5121848;28;20441;-62
2022/05/29 01:12:07;;;;;;;8.47;3.60;;;;;;;9.78;73.11;100250.47;5120807;28;20541;-62
2022/05/29 01:14:44;;;;;;;12.63;3.03;;;;;;;9.80;73.01;100248.50;5121927;28;20503;-62
2022/05/29 01:17:17;;;;;;;6.73;3.47;;;;;;;9.82;73.02;100251.88;5121667;28;20478;-62
2022/05/29 01:20:08;;;;;;;5.97;2.47;;;;;;;9.70;73.38;100237.78;5121747;28;20446;-62
2022/05/29 01:23:21;;;;;;;7.13;3.00;;;;;;;9.72;73.61;100233.19;5120851;28;20492;-63
2022/05/29 01:26:23;;;;;;;7.80;3.10;;;;;;;9.76;73.55;100237.25;5121657;28;20477;-62
2022/05/29 01:28:53;;;;;;;6.37;3.90;;;;;;;9.67;73.90;100232.75;5087033;28;20470;-61
2022/05/29 01:31:33;;;;;;;6.83;3.40;;;;;;;9.66;73.59;100233.69;5121341;28;20478;-62
2022/05/29 01:34:11;;;;;;;10.37;3.73;;;;;;;9.63;73.32;100225.13;5121970;28;20949;-62
2022/05/29 01:36:43;;;;;;;8.70;2.90;;;;;;;9.55;73.85;100223.97;5120907;28;20478;-62
2022/05/29 01:39:13;;;;;;;7.50;3.50;;;;;;;9.56;74.00;100220.31;5121904;28;20450;-64
2022/05/29 01:41:48;;;;;;;6.20;2.80;;;;;;;9.41;74.33;100216.34;5120316;28;20474;-62
2022/05/29 01:44:20;;;;;;;6.87;3.80;;;;;;;9.41;74.58;100217.19;5106202;28;20466;-61
2022/05/29 01:46:51;;;;;;;8.83;3.53;;;;;;;9.68;73.29;100209.53;5120928;28;20908;-61
2022/05/29 01:49:21;;;;;;;10.77;4.50;;;;;;;9.53;73.69;100212.59;5121825;28;20448;-61
2022/05/29 01:51:53;;;;;;;9.70;3.33;;;;;;;9.37;74.63;100217.56;5120216;28;20549;-62
2022/05/29 01:54:22;;;;;;;6.83;4.10;;;;;;;9.45;74.36;100211.59;5121299;28;20457;-62
2022/05/29 01:56:53;;;;;;;13.87;3.60;;;;;;;9.49;75.04;100215.66;5120127;28;20466;-61
2022/05/29 01:59:26;;;;;;;10.23;3.80;;;;;;;9.30;74.90;100206.59;5121736;28;20438;-61
2022/05/29 02:01:56;;;;;;;9.47;3.33;;;;;;;9.36;75.14;100206.06;5121103;28;20486;-63
2022/05/29 02:04:26;;;;;;;8.90;3.97;;;;;;;9.27;75.17;100208.66;5121898;28;20603;-61
2022/05/29 02:09:41;;;;;;;11.50;4.50;;;;;;;9.30;75.72;100200.41;5121500;28;20510;-61
2022/05/29 02:12:11;;;;;;;10.47;4.20;;;;;;;9.14;76.07;100193.72;5120361;28;20469;-61
2022/05/29 02:14:41;;;;;;;7.67;3.13;;;;;;;9.14;75.91;100193.72;5121222;28;20430;-62
2022/05/29 02:17:13;;;;;;;10.47;4.43;;;;;;;8.98;76.39;100191.56;5120396;28;20484;-62
2022/05/29 02:19:42;;;;;;;8.00;3.33;;;;;;;9.00;76.71;100197.59;5121594;28;20446;-62
2022/05/29 02:22:12;;;;;;;10.30;4.07;;;;;;;8.90;76.89;100195.84;5119542;28;20474;-61
2022/05/29 02:24:42;;;;;;;9.30;3.37;;;;;;;8.81;77.02;100186.81;5121229;28;20496;-61
2022/05/29 02:27:12;;;;;;;8.20;3.10;;;;;;;8.82;77.46;100194.69;5119968;28;20482;-61
2022/05/29 02:29:42;;;;;;;7.80;4.17;;;;;;;8.62;78.03;100187.53;5120886;28;20431;-61
2022/05/29 02:32:13;;;;;;;11.90;4.30;;;;;;;8.65;78.27;100189.94;5120522;28;20494;-61
2022/05/29 02:34:48;;;;;;;8.63;3.50;;;;;;;8.69;78.24;100194.03;5120658;28;20551;-61
2022/05/29 02:37:20;;;;;;;9.87;4.40;;;;;;;8.75;78.32;100190.00;5119955;28;20503;-60
2022/05/29 02:39:55;;;;;;;8.27;3.70;;;;;;;8.82;78.06;100188.53;5120338;28;20445;-61
2022/05/29 02:42:28;;;;;;;14.57;4.97;;;;;;;8.74;77.94;100189.16;5120586;28;20477;-60
2022/05/29 02:45:05;;;;;;;8.50;4.63;;;;;;;8.84;77.82;100189.22;5104631;28;20458;-61
2022/05/29 02:47:38;;;;;;;7.70;4.20;;;;;;;8.95;77.73;100181.13;5120601;28;20482;-61
2022/05/29 02:50:19;;;;;;;8.13;3.73;;;;;;;9.00;77.66;100180.75;5120173;28;20503;-61
2022/05/29 02:52:46;;;;;;;10.03;4.63;;;;;;;8.89;77.27;100184.34;5119628;28;20474;-61
2022/05/29 02:55:16;;;;;;;9.83;4.37;;;;;;;8.82;77.75;100180.53;5120026;28;20435;-61
2022/05/29 02:57:43;;;;;;;6.57;3.57;;;;;;;8.83;77.99;100187.53;5121221;28;20438;-61
2022/05/29 03:00:13;;;;;;;6.47;4.10;;;;;;;8.90;77.93;100182.53;5119606;28;20446;-61
2022/05/29 03:02:46;;;;;;;7.83;4.30;;;;;;;8.76;78.30;100178.38;5120627;28;20457;-61
2022/05/29 03:05:18;;;;;;;9.33;4.50;;;;;;;8.77;78.55;100180.06;5120110;28;20694;-60
2022/05/29 03:07:56;;;;;;;8.47;3.97;;;;;;;8.86;79.40;100172.13;5123044;28;21359;-61
2022/05/29 03:10:26;;;;;;;8.70;5.00;;;;;;;8.72;80.68;100177.78;5111223;28;20508;-61
2022/05/29 03:13:00;;;;;;;11.17;5.50;;;;;;;8.86;80.75;100168.59;5124649;28;20535;-62
2022/05/29 03:15:39;;;;;;;11.30;4.60;;;;;;;8.75;81.10;100168.66;5123327;28;20824;-62
2022/05/29 03:18:24;;;;;;;8.63;4.63;;;;;;;8.72;81.69;100156.47;5124011;28;21004;-62
2022/05/29 03:20:57;;;;;;;12.43;4.97;;;;;;;8.74;81.93;100159.84;5123523;28;20495;-62
2022/05/29 03:23:30;;;;;;;14.10;5.07;;;;;;;8.68;82.24;100157.72;5123505;28;20541;-63
2022/05/29 03:26:00;;;;;;;13.23;5.40;;;;;;;8.74;82.19;100149.19;5123866;28;20913;-63
2022/05/29 03:28:31;;;;;;;12.47;4.90;;;;;;;8.74;81.93;100153.66;5123968;28;20449;-64
2022/05/29 03:31:01;;;;;;;14.27;6.57;;;;;;;8.70;82.36;100155.75;5123817;28;20470;-61
2022/05/29 03:33:28;;;;;;;11.70;5.60;;;;;;;8.83;82.10;100156.38;5123991;28;20725;-61
2022/05/29 03:36:08;;;;;;;12.33;5.40;;;;;;;8.80;82.29;100155.78;5122807;28;20469;-61
2022/05/29 03:38:35;;;;;;;11.60;6.17;;;;;;;8.86;82.16;100155.28;5122926;28;20548;-61
2022/05/29 03:41:04;;;;;;;9.10;5.17;;;;;;;8.96;81.56;100155.34;5123230;28;20462;-61
2022/05/29 03:43:31;;;;;;;10.50;5.60;;;;;;;8.98;81.84;100153.38;5124248;28;20969;-61
2022/05/29 03:45:59;;;;;;;15.33;6.83;;;;;;;8.96;81.87;100155.34;5122424;28;20478;-61
2022/05/29 03:48:26;;;;;;;12.27;6.90;;;;;;;8.96;81.47;100153.50;5124224;28;20442;-61
2022/05/29 03:50:52;;;;;;;13.13;6.27;;;;;;;8.79;81.63;100152.28;5122685;28;20820;-61
2022/05/29 03:53:19;;;;;;;12.77;6.37;;;;;;;8.91;81.74;100147.72;5122186;28;20470;-61
2022/05/29 03:55:46;;;;;;;10.07;5.63;;;;;;;8.94;81.96;100150.13;5123182;28;20925;-61
2022/05/29 03:58:12;;;;;;;12.00;5.73;;;;;;;8.96;81.56;100148.19;5123671;28;20434;-61
2022/05/29 04:00:39;;;;;;;12.63;5.93;;;;;;;9.10;81.40;100143.47;5123001;28;20470;-61
2022/05/29 04:03:07;;;;;;;10.90;5.70;;;;;;;9.26;80.92;100138.47;5124034;28;21084;-61
2022/05/29 04:05:34;;;;;;;10.97;5.00;;;;;;;9.09;81.61;100137.28;5122538;28;20470;-61
2022/05/29 04:13:30;;;;;;;10.53;5.93;;;;;;;9.19;81.28;100134.66;5111909;28;20778;-62
2022/05/29 04:15:56;;;;;;;11.27;5.60;;;;;;;9.28;81.03;100136.50;5121827;28;20489;-61
2022/05/29 04:18:24;;;;;;;12.80;6.63;;;;;;;9.21;81.43;100140.69;5122450;28;20879;-60
2022/05/29 04:20:52;;;;;;;12.47;5.90;;;;;;;9.35;81.41;100137.66;5122763;28;20482;-61
2022/05/29 04:23:19;;;;;;;9.63;6.33;;;;;;;9.51;80.88;100141.63;5122297;28;20518;-62
2022/05/29 04:25:46;;;;;;;11.67;7.00;;;;;;;9.37;80.91;100135.72;5122548;28;20473;-61
2022/05/29 04:28:13;;;;;;;14.80;6.23;;;;;;;9.46;81.12;100139.41;5123235;28;20438;-61
2022/05/29 04:30:40;;;;;;;15.60;6.50;;;;;;;9.57;81.28;100138.44;5121650;28;20466;-61
2022/05/29 04:33:07;;;;;;;13.47;6.30;;;;;;;9.35;80.95;100132.31;5122832;28;20575;-61
2022/05/29 04:35:40;;;;;;;14.00;5.93;;;;;;;9.52;80.75;100128.16;5122355;28;20498;-61
2022/05/29 04:38:07;;;;;;;14.77;6.70;;;;;;;9.53;80.66;100121.00;5123231;28;20455;-61
2022/05/29 04:40:35;;;;;;;8.40;5.30;;;;;;;9.59;80.27;100115.13;5122902;28;20533;-61
2022/05/29 04:43:02;;;;;;;19.83;5.97;;;;;;;9.53;80.78;100110.31;5122910;28;20457;-61
2022/05/29 04:45:29;;;;;;;14.37;5.93;;;;;;;9.59;80.00;100118.63;5120970;28;20462;-61
2022/05/29 04:47:56;;;;;;;18.37;6.17;;;;;;;9.63;80.44;100115.69;5122821;28;20439;-62
2022/05/29 04:50:23;;;;;;;11.93;5.60;;;;;;;9.77;80.20;100121.47;5121068;28;20473;-61
2022/05/29 04:52:51;;;;;;;11.43;5.50;;;;;;;9.66;79.86;100110.06;5113189;28;20959;-61
2022/05/29 04:55:18;;;;;;;12.10;6.70;;;;;;;9.77;79.53;100118.81;5100610;28;20454;-61
2022/05/29 04:57:45;;;;;;;13.83;5.93;;;;;;;10.02;79.30;100123.75;5101694;28;20797;-61
2022/05/29 05:00:13;;;;;;;14.80;5.80;;;;;;;9.57;80.14;100125.09;5100773;28;20469;-62
2022/05/29 05:02:43;;;;;;;12.20;5.33;;;;;;;9.81;79.75;100119.38;5101594;28;20614;-62
2022/05/29 05:05:11;;;;;;;8.33;6.10;;;;;;;9.88;79.23;100123.16;5100418;28;20463;-62
2022/05/29 05:07:37;;;;;;;10.40;5.67;;;;;;;9.91;78.74;100124.69;5100941;28;20504;-61
2022/05/29 05:10:10;;;;;;;18.07;6.83;;;;;;;9.97;78.53;100124.16;5100742;28;20744;-65
2022/05/29 05:12:36;;;;;;;9.20;5.70;;;;;;;9.97;78.20;100127.66;5100611;28;20836;-61
2022/05/29 05:15:03;;;;;;;13.30;6.87;;;;;;;10.13;78.77;100126.28;5100971;28;20446;-61
2022/05/29 05:17:30;;;;;;;9.50;5.83;;;;;;;10.54;77.02;100125.13;5099149;28;20801;-61
2022/05/29 05:19:57;;;;;;;9.87;6.13;;;;;;;10.60;75.98;100117.53;5101804;28;20440;-61
2022/05/29 05:22:23;;;;;;;11.67;5.73;;;;;;;11.19;74.92;100116.34;5100740;28;20475;-63
2022/05/29 05:24:50;;;;;;;11.63;5.63;;;;;;;11.31;73.34;100120.50;5100823;28;20474;-62
2022/05/29 05:27:18;;;;;;;16.07;5.70;;;;;;;11.00;73.44;100113.75;5099760;28;20563;-62
2022/05/29 05:29:45;;;;;;;11.87;5.70;;;;;;;11.30;73.42;100121.50;5101962;28;20435;-62
2022/05/29 05:32:13;;;;;;;18.10;5.73;;;;;;;11.29;72.79;100125.16;5100260;28;20482;-61
2022/05/29 05:34:40;;;;;;;11.53;6.03;;;;;;;11.29;73.20;100119.81;5101749;28;20927;-61
2022/05/29 05:37:07;;;;;;;9.50;5.40;;;;;;;10.73;74.57;100121.56;5099759;28;20474;-60
2022/05/29 05:39:34;;;;;;;9.53;5.70;;;;;;;10.82;74.31;100119.88;5100535;28;20504;-60
2022/05/29 05:42:00;;;;;;;12.10;5.30;;;;;;;10.95;74.49;100122.19;5100371;28;20475;-61
2022/05/29 05:44:29;;;;;;;11.03;6.67;;;;;;;11.19;74.16;100121.69;5101199;28;20514;-61
2022/05/29 05:46:56;;;;;;;10.70;5.03;;;;;;;11.24;75.25;100121.25;5099886;28;20479;-61
2022/05/29 05:49:23;;;;;;;10.70;5.13;;;;;;;11.45;72.94;100121.84;5100517;28;20531;-60
2022/05/29 05:51:51;;;;;;;9.97;4.90;;;;;;;11.27;72.84;100116.44;5099450;28;20479;-62
2022/05/29 05:54:19;;;;;;;11.03;5.47;;;;;;;11.27;72.57;100116.44;5121363;28;20446;-59
2022/05/29 05:56:47;;;;;;;9.53;4.80;;;;;;;11.05;74.79;100122.19;5120744;28;20550;-60
2022/05/29 05:59:15;;;;;;;11.80;6.03;;;;;;;10.88;74.90;100116.63;5122107;28;20480;-61
2022/05/29 06:01:43;;;;;;;12.40;5.80;;;;;;;10.96;74.56;100113.19;5120458;28;20478;-62
2022/05/29 06:04:09;;;;;;;9.27;5.20;;;;;;;11.50;72.91;100113.38;5121671;28;20462;-62
2022/05/29 06:06:36;;;;;;;12.73;5.57;;;;;;;11.33;72.95;100111.50;5119861;28;21014;-62
2022/05/29 06:09:03;;;;;;;12.37;5.57;;;;;;;11.16;73.65;100119.31;5120960;28;20457;-61
2022/05/29 06:11:31;;;;;;;11.73;5.27;;;;;;;10.93;73.97;100119.66;5121035;27;20473;-61
2022/05/29 06:13:57;;;;;;;11.87;6.40;;;;;;;11.34;72.86;100122.06;5120949;28;20446;-61
2022/05/29 06:16:24;;;;;;;10.00;5.30;;;;;;;11.82;72.20;100114.69;5118104;28;20505;-62
2022/05/29 06:18:52;;;;;;;12.20;5.33;;;;;;;11.38;72.17;100118.06;5121349;28;20486;-62
2022/05/29 06:21:19;;;;;;;13.53;5.37;;;;;;;11.02;72.89;100120.63;5122088;28;20473;-60
2022/05/29 06:23:46;;;;;;;9.43;5.13;;;;;;;11.24;72.53;100122.09;5120590;28;20460;-60
2022/05/29 06:26:13;;;;;;;10.10;5.50;;;;;;;11.21;72.85;100108.16;5118560;28;20508;-60
2022/05/29 06:28:40;;;;;;;11.77;5.50;;;;;;;11.29;73.34;100118.97;5121484;28;20429;-61
2022/05/29 06:31:09;;;;;;;10.00;5.07;;;;;;;11.69;71.95;100117.75;5120079;28;21041;-61
2022/05/29 06:33:36;;;;;;;7.93;4.77;;;;;;;11.53;71.27;100114.88;5121337;28;20513;-61
2022/05/29 06:36:09;;;;;;;7.93;5.20;;;;;;;11.36;72.72;100120.06;5119489;28;20489;-61
2022/05/29 06:38:36;;;;;;;11.53;4.87;;;;;;;11.53;72.85;100120.25;5100841;28;20481;-61
2022/05/29 06:41:05;;;;;;;11.43;5.00;;;;;;;11.39;73.12;100116.25;5104912;27;20473;-61
2022/05/29 06:43:32;;;;;;;9.40;4.60;;;;;;;11.72;73.42;100119.28;5123130;27;20446;-62
2022/05/29 06:45:59;;;;;;;14.50;6.03;;;;;;;11.59;72.87;100112.47;5121735;28;20473;-62
2022/05/29 06:48:26;;;;;;;10.87;4.67;;;;;;;11.64;72.65;100112.00;5123920;28;20442;-64
2022/05/29 06:50:52;;;;;;;10.70;5.30;;;;;;;11.34;74.29;100119.38;5122514;28;20977;-66
2022/05/29 06:53:21;;;;;;;10.23;4.37;;;;;;;11.29;74.50;100118.97;5124203;28;20944;-62
2022/05/29 06:55:54;;;;;;;12.23;4.63;;;;;;;11.09;74.74;100115.53;5123326;28;20458;-61
2022/05/29 06:58:21;;;;;;;9.70;4.63;;;;;;;10.90;75.23;100111.09;5122662;28;20487;-65
2022/05/29 07:09:03;;;;;;;13.00;5.90;;;;;;;11.75;74.28;100111.81;5112067;28;20480;-62
2022/05/29 07:11:34;;;;;;;15.37;5.00;;;;;;;11.71;75.00;100120.28;5112795;28;20495;-65
2022/05/29 07:14:03;;;;;;;8.70;4.00;;;;;;;11.86;73.20;100111.56;5112737;28;20454;-62
2022/05/29 07:16:29;;;;;;;10.93;5.00;;;;;;;11.66;74.01;100116.22;5101922;28;21053;-62
2022/05/29 07:18:56;;;;;;;14.47;4.90;;;;;;;11.21;76.87;100116.19;5103261;28;20423;-61
2022/05/29 07:21:23;;;;;;;6.70;4.63;;;;;;;11.27;77.35;100118.28;5102549;28;20532;-62
2022/05/29 07:23:50;;;;;;;7.67;3.97;;;;;;;11.56;75.89;100118.13;5122952;28;20454;-63
2022/05/29 07:26:18;;;;;;;10.83;4.80;;;;;;;11.47;76.38;100121.69;5122165;27;20478;-61
2022/05/29 07:28:45;;;;;;;14.43;5.20;;;;;;;11.85;75.96;100111.72;5123053;28;20434;-66
2022/05/29 07:31:12;;;;;;;6.90;4.50;;;;;;;11.59;75.87;100112.47;5118659;27;20871;-61
2022/05/29 07:33:39;;;;;;;9.60;4.57;;;;;;;11.21;76.11;100113.50;5122980;28;20504;-60
2022/05/29 07:36:09;;;;;;;5.00;3.70;;;;;;;11.34;75.73;100108.66;5122536;28;20450;-62
2022/05/29 07:38:36;;;;;;;5.63;3.83;;;;;;;11.82;75.27;100107.53;5122794;28;20505;-63
2022/05/29 07:43:18;;;;;;;8.67;4.53;;;;;;;11.66;74.81;100097.47;5122406;28;20473;-67
2022/05/29 07:43:51;;;;;;;9.90;4.47;;;;;;;11.52;75.74;100105.19;5121326;28;20446;-63
2022/05/29 07:46:19;;;;;;;5.20;4.53;;;;;;;11.29;76.30;100106.44;5112084;27;20482;-68
2022/05/29 07:48:45;;;;;;;9.07;4.73;;;;;;;11.07;78.28;100110.31;5112702;28;20512;-62
2022/05/29 07:51:12;;;;;;;8.70;5.03;;;;;;;10.85;78.29;100116.91;5123621;27;20476;-63
2022/05/29 07:53:39;;;;;;;5.80;5.00;;;;;;;10.61;79.73;100108.53;5128997;27;20524;-63
2022/05/29 07:56:07;;;;;;;7.40;5.50;;;;;;;10.47;80.56;100112.50;5138612;27;20887;-65
2022/05/29 07:58:34;;;;;;;7.30;4.40;;;;;;;10.63;81.08;100117.25;5143702;27;20453;-66
2022/05/29 08:01:02;;;;;;;14.40;6.63;;;;;;;10.45;81.74;100120.66;5121645;27;20485;-64
2022/05/29 08:03:29;;;;;;;8.93;5.30;;;;;;;10.53;82.51;100115.41;5122506;28;20861;-66
2022/05/29 08:05:57;;;;;;;7.53;5.23;;;;;;;10.63;82.73;100119.91;5121577;28;20521;-63
2022/05/29 08:08:24;;;;;;;7.80;4.77;;;;;;;10.58;82.31;100114.16;5126714;27;21105;-63
2022/05/29 08:10:51;;;;;;;13.63;5.40;;;;;;;10.62;82.29;100113.72;5120368;28;20500;-64
2022/05/29 08:13:18;;;;;;;10.33;4.90;;;;;;;10.98;81.98;100116.56;5121861;28;20489;-62
2022/05/29 08:15:45;;;;;;;7.10;3.97;;;;;;;11.19;80.32;100113.66;5131380;27;20465;-63
2022/05/29 08:18:13;;;;;;;5.50;4.50;;;;;;;11.26;80.33;100114.75;5120200;27;20496;-62
2022/05/29 08:20:40;;;;;;;7.60;4.67;;;;;;;11.74;79.77;100104.75;5120604;28;20487;-61
2022/05/29 08:23:07;;;;;;;6.17;4.20;;;;;;;11.64;78.74;100106.66;5120568;27;20477;-66
2022/05/29 08:31:05;;;;;;;11.27;3.80;;;;;;;12.60;75.84;100106.00;5119116;28;21006;-68
2022/05/29 08:33:35;;;;;;;5.23;4.07;;;;;;;13.17;73.93;100103.63;5121822;27;20939;-65
2022/05/29 08:36:06;;;;;;;6.33;4.00;;;;;;;13.62;71.02;100098.13;5120445;27;20462;-62
2022/05/29 08:38:34;;;;;;;6.07;3.43;;;;;;;13.26;71.21;100101.84;5126325;27;20462;-63
2022/05/29 08:41:03;;;;;;;4.90;2.73;;;;;;;13.63;71.28;100099.81;5110541;27;20462;-63
2022/05/29 08:43:33;;;;;;;4.97;2.47;;;;;;;13.71;67.89;100092.63;5132305;27;20454;-64
2022/05/29 08:46:04;;;;;;;4.63;2.30;;;;;;;14.16;67.68;100092.31;5115872;28;20918;-64
2022/05/29 08:48:31;;;;;;;3.67;2.00;;;;;;;15.00;63.79;100099.13;5119230;28;20446;-63
2022/05/29 08:51:14;;;;;;;5.00;1.80;;;;;;;14.36;65.20;100087.47;5117327;28;20482;-64
2022/05/29 08:53:44;;;;;;;6.53;2.13;;;;;;;13.90;66.91;100085.25;5121944;27;20486;-65
2022/05/29 08:56:17;;;;;;;5.23;2.37;;;;;;;13.61;65.14;100096.44;5126392;27;20982;-62
2022/05/29 08:59:01;;;;;;;5.50;2.07;;;;;;;13.27;68.17;100095.47;5135671;27;20445;-62
2022/05/29 09:01:34;;;;;;;2.17;1.97;;;;;;;13.93;66.62;100084.91;5111128;27;20481;-64
2022/05/29 09:04:02;;;;;;;4.50;2.10;;;;;;;13.10;66.48;100086.50;5115899;28;20814;-63
2022/05/29 09:06:35;;;;;;;8.27;2.37;;;;;;;12.87;68.64;100086.22;5115746;28;20524;-69
2022/05/29 09:09:05;;;;;;;6.53;2.20;;;;;;;12.64;69.79;100093.97;5116085;28;20478;-61
2022/05/29 09:11:35;;;;;;;9.13;2.20;;;;;;;12.40;70.79;100095.47;5114381;28;20526;-63
2022/05/29 09:14:10;;;;;;;5.13;2.50;;;;;;;11.88;72.88;100098.88;5119924;28;20809;-63
2022/05/29 09:16:42;;;;;;;4.77;3.00;;;;;;;11.73;75.57;100096.88;5118040;28;20477;-62
2022/05/29 09:19:13;;;;;;;9.10;3.87;;;;;;;12.10;76.06;100099.44;5119511;28;20454;-62
2022/05/29 09:21:51;;;;;;;5.93;2.93;;;;;;;11.99;75.73;100103.19;5118004;28;20499;-61
2022/05/29 09:24:27;;;;;;;4.53;3.20;;;;;;;12.23;76.17;100099.03;5118474;28;20450;-61
2022/05/29 09:26:54;;;;;;;8.03;3.13;;;;;;;12.00;76.56;100104.88;5119464;27;20480;-61
2022/05/29 09:29:20;;;;;;;5.80;4.00;;;;;;;12.47;77.33;100100.22;5125342;27;20443;-62
2022/05/29 09:31:47;;;;;;;5.57;3.30;;;;;;;12.92;73.47;100100.00;5115745;27;20482;-62
2022/05/29 09:34:14;;;;;;;4.27;2.90;;;;;;;12.69;73.86;100097.03;5120598;27;20787;-61
2022/05/29 09:36:50;;;;;;;5.17;2.30;;;;;;;12.33;74.38;100102.47;5116951;27;20474;-61
2022/05/29 09:39:24;;;;;;;6.80;3.30;;;;;;;12.96;73.03;100096.00;5104188;28;20461;-62
2022/05/29 09:41:57;;;;;;;3.70;2.70;;;;;;;13.09;73.89;100098.25;5118169;28;20465;-62
2022/05/29 09:44:25;;;;;;;3.70;2.97;;;;;;;13.46;71.95;100091.72;5113880;28;20956;-62
2022/05/29 09:46:53;;;;;;;4.90;2.87;;;;;;;13.59;70.56;100090.41;5107383;28;20513;-61
2022/05/29 09:49:45;;;;;;;4.30;2.70;;;;;;;13.78;71.17;100092.78;5115090;28;20462;-62
2022/05/29 09:52:15;;;;;;;5.60;3.17;;;;;;;14.12;70.20;100091.81;5120417;28;20477;-61
2022/05/29 09:54:45;;;;;;;5.40;3.07;;;;;;;14.56;68.49;100091.44;5120398;28;20453;-63
2022/05/29 09:57:14;;;;;;;7.00;3.40;;;;;;;14.31;66.94;100077.19;5120928;28;20470;-63
2022/05/29 09:59:43;;;;;;;8.10;3.30;;;;;;;13.67;69.40;100080.50;5121462;28;20426;-61
2022/05/29 10:02:20;;;;;;;5.27;2.80;;;;;;;14.03;68.95;100082.91;5117744;28;20539;-62
2022/05/29 10:04:51;;;;;;;8.37;3.27;;;;;;;13.99;70.82;100076.19;5120070;28;20446;-62
2022/05/29 10:07:32;;;;;;;4.03;2.67;;;;;;;13.63;68.51;100071.09;5118716;28;20588;-61
2022/05/29 10:10:01;;;;;;;6.37;3.23;;;;;;;14.77;67.86;100082.03;5117704;28;20606;-62
2022/05/29 10:12:38;;;;;;;6.23;2.93;;;;;;;14.54;67.58;100069.25;5119136;28;20885;-63
2022/05/29 10:15:07;;;;;;;4.67;3.00;;;;;;;14.41;65.31;100069.78;5119671;28;20460;-62
2022/05/29 10:17:36;;;;;;;8.93;2.70;;;;;;;14.75;64.30;100065.22;5116528;28;20896;-62
2022/05/29 10:20:03;;;;;;;4.20;2.17;;;;;;;15.62;64.59;100062.47;5120056;28;20444;-62
2022/05/29 10:22:37;;;;;;;6.17;2.70;;;;;;;17.24;59.12;100064.88;5117752;27;20500;-62
2022/05/29 10:25:13;;;;;;;4.80;2.17;;;;;;;17.86;56.22;100058.97;5121012;28;20430;-62
2022/05/29 10:27:41;;;;;;;6.40;2.70;;;;;;;18.03;53.81;100056.81;5118418;28;20462;-62
2022/05/29 10:30:10;;;;;;;3.43;2.10;;;;;;;16.91;56.57;100057.19;5114139;28;20872;-62
2022/05/29 10:32:38;;;;;;;5.30;2.17;;;;;;;16.30;59.33;100068.03;5113274;28;20474;-61
2022/05/29 10:35:23;;;;;;;7.40;2.90;;;;;;;14.99;65.87;100064.31;5112280;28;20495;-61
2022/05/29 10:37:53;;;;;;;6.87;3.00;;;;;;;14.38;67.51;100067.44;5108213;28;20482;-64
2022/05/29 10:40:24;;;;;;;6.07;2.40;;;;;;;13.43;69.39;100075.91;5112245;28;20466;-62
2022/05/29 10:42:53;;;;;;;4.27;2.90;;;;;;;13.60;68.73;100073.28;5113020;28;20477;-62
2022/05/29 10:45:23;;;;;;;7.00;2.87;;;;;;;13.26;69.57;100072.31;5106230;28;20481;-61
2022/05/29 10:48:15;;;;;;;10.43;3.40;;;;;;;13.68;68.78;100066.09;5112723;28;20450;-62
2022/05/29 10:50:52;;;;;;;7.23;2.70;;;;;;;13.97;69.63;100059.38;5096798;28;20519;-60
2022/05/29 10:53:28;;;;;;;7.10;3.50;;;;;;;14.31;69.64;100056.50;5112550;28;20485;-64
2022/05/29 10:56:03;;;;;;;6.47;3.70;;;;;;;15.65;66.46;100053.19;5113603;28;20454;-64
2022/05/29 10:58:52;;;;;;;10.13;3.57;;;;;;;15.13;65.42;100060.03;5116300;28;20449;-63
2022/05/29 11:04:36;;;;;;;10.77;3.20;;;;;;;15.32;65.98;100054.22;5107257;28;20545;-64
2022/05/29 11:07:18;;;;;;;6.50;2.60;;;;;;;15.60;64.96;100051.03;5118862;28;20504;-64
2022/05/29 11:09:56;;;;;;;5.27;2.70;;;;;;;15.87;64.15;100047.00;5111847;28;20446;-63
2022/05/29 11:12:29;;;;;;;6.03;2.00;;;;;;;16.11;63.13;100047.81;5113251;28;20538;-64
2022/05/29 11:15:08;;;;;;;5.73;2.33;;;;;;;16.10;60.48;100049.69;5107263;28;20442;-63
2022/05/29 11:17:47;;;;;;;4.63;2.30;;;;;;;16.07;61.64;100046.50;5109711;28;20466;-65
2022/05/29 11:20:25;;;;;;;11.47;2.37;;;;;;;15.65;62.53;100051.34;5117276;28;20438;-64
2022/05/29 11:23:02;;;;;;;4.37;1.70;;;;;;;15.75;61.33;100043.88;5101327;28;20526;-64
2022/05/29 11:25:42;;;;;;;6.80;2.07;;;;;;;15.66;59.03;100044.06;5099178;28;20466;-65
2022/05/29 11:28:26;;;;;;;3.27;1.20;;;;;;;16.56;57.43;100043.34;5117433;27;20449;-62
2022/05/29 11:31:05;;;;;;;8.40;1.60;;;;;;;17.17;56.27;100043.19;5114933;28;20470;-63
2022/05/29 11:33:56;;;;;;;5.90;1.87;;;;;;;17.34;55.00;100042.94;5114394;28;20442;-67
2022/05/29 11:36:33;;;;;;;3.27;1.10;;;;;;;17.56;53.44;100028.44;5096399;27;20467;-67
2022/05/29 11:39:24;;;;;;;4.33;1.30;;;;;;;17.06;54.40;100030.16;5113803;27;20449;-66
2022/05/29 11:41:55;;;;;;;3.63;1.47;;;;;;;17.17;55.42;100039.63;5105595;27;20470;-68
2022/05/29 11:44:26;;;;;;;5.00;1.77;;;;;;;16.72;54.32;100029.69;5111238;28;20441;-64
2022/05/29 11:52:38;;;;;;;4.77;1.43;;;;;;;15.61;55.69;100012.28;5107907;27;20548;-65
2022/05/29 11:55:10;;;;;;;4.17;1.70;;;;;;;15.59;56.85;100015.16;5109523;28;20438;-65
2022/05/29 11:57:43;;;;;;;3.93;1.30;;;;;;;15.58;56.47;100018.03;5120000;27;20466;-65
2022/05/29 12:00:15;;;;;;;5.13;1.20;;;;;;;15.88;55.65;100016.31;5131818;27;21017;-64
2022/05/29 12:02:47;;;;;;;4.40;1.47;;;;;;;15.98;55.35;100021.47;5118592;28;20482;-65
2022/05/29 12:05:25;;;;;;;3.57;1.40;;;;;;;15.80;56.45;100014.53;5133308;27;20463;-68
2022/05/29 12:07:55;;;;;;;6.30;2.60;;;;;;;15.54;56.67;100009.47;5124793;27;20908;-65
2022/05/29 12:10:24;;;;;;;9.33;3.40;;;;;;;15.74;55.50;100014.38;5114757;28;20476;-66
2022/05/29 12:12:57;;;;;;;6.10;1.90;;;;;;;15.66;58.12;100009.91;5128740;27;20453;-67